createdAt,value
2022-11-24T00:00:49.487Z,15.32
2022-11-24T00:03:16.868Z,15.05
2022-11-24T00:05:44.318Z,14.27
2022-11-24T00:08:11.481Z,14.43
2022-11-24T00:10:38.636Z,15.93
2022-11-24T00:13:05.880Z,14.50
2022-11-24T00:15:33.032Z,14.52
2022-11-24T00:18:00.181Z,14.95
2022-11-24T00:20:27.347Z,14.30
2022-11-24T00:22:54.579Z,15.40
2022-11-24T00:25:21.724Z,15.25
2022-11-24T00:27:48.938Z,15.18
2022-11-24T00:30:16.255Z,15.43
2022-11-24T00:32:43.402Z,14.73
2022-11-24T00:35:10.615Z,14.65
2022-11-24T00:37:37.761Z,14.63
2022-11-24T00:40:05.167Z,13.88
2022-11-24T00:42:32.376Z,13.82
2022-11-24T00:44:59.523Z,14.23
2022-11-24T00:47:28.753Z,12.77
2022-11-24T00:49:55.926Z,14.27
2022-11-24T00:52:23.074Z,14.32
2022-11-24T00:54:50.226Z,12.98
2022-11-24T00:57:17.445Z,13.57
2022-11-24T00:59:44.598Z,12.70
2022-11-24T01:02:11.888Z,12.90
2022-11-24T01:04:39.249Z,12.10
2022-11-24T01:07:06.564Z,11.80
2022-11-24T01:09:33.879Z,12.98
2022-11-24T01:12:04.324Z,13.55
2022-11-24T01:14:33.102Z,13.30
2022-11-24T01:17:00.638Z,12.75
2022-11-24T01:19:27.814Z,11.80
2022-11-24T01:21:54.979Z,12.75
2022-11-24T01:24:22.214Z,12.00
2022-11-24T01:26:49.424Z,12.90
2022-11-24T01:29:16.648Z,11.85
2022-11-24T01:31:43.829Z,11.18
2022-11-24T01:34:11.104Z,12.13
2022-11-24T01:36:38.301Z,10.85
2022-11-24T01:39:05.602Z,12.10
2022-11-24T01:41:34.450Z,11.85
2022-11-24T01:44:01.635Z,11.35
2022-11-24T01:46:29.209Z,11.35
2022-11-24T01:49:05.569Z,10.15
2022-11-24T01:51:35.270Z,10.35
2022-11-24T01:54:16.896Z,10.25
2022-11-24T01:56:46.459Z,10.93
2022-11-24T01:59:15.227Z,11.13
2022-11-24T02:01:43.186Z,9.68
2022-11-24T02:04:13.586Z,10.75
2022-11-24T02:06:42.715Z,9.60
2022-11-24T02:09:18.864Z,10.05
2022-11-24T02:11:47.128Z,9.48
2022-11-24T02:14:15.574Z,9.75
2022-11-24T02:16:44.363Z,8.75
2022-11-24T02:19:19.016Z,9.43
2022-11-24T02:21:46.343Z,9.77
2022-11-24T02:24:16.484Z,9.85
2022-11-24T02:26:47.869Z,8.80
2022-11-24T02:29:15.717Z,9.90
2022-11-24T02:31:45.202Z,7.80
2022-11-24T02:34:12.470Z,8.35
2022-11-24T02:36:39.635Z,7.65
2022-11-24T02:39:10.651Z,7.63
2022-11-24T02:41:38.353Z,7.95
2022-11-24T02:44:05.687Z,8.13
2022-11-24T02:46:32.949Z,8.32
2022-11-24T02:49:00.143Z,7.50
2022-11-24T02:51:28.043Z,7.80
2022-11-24T02:53:55.168Z,7.55
2022-11-24T02:56:22.383Z,9.15
2022-11-24T02:58:49.535Z,7.28
2022-11-24T03:01:16.794Z,7.00
2022-11-24T03:03:44.056Z,7.18
2022-11-24T03:06:11.212Z,8.07
2022-11-24T03:08:38.391Z,8.48
2022-11-24T03:11:05.826Z,8.35
2022-11-24T03:13:32.988Z,7.50
2022-11-24T03:16:00.322Z,6.80
2022-11-24T03:18:27.548Z,6.55
2022-11-24T03:20:59.489Z,7.57
2022-11-24T03:23:27.118Z,7.75
2022-11-24T03:25:55.000Z,6.32
2022-11-24T03:28:22.171Z,6.95
2022-11-24T03:30:49.859Z,7.00
2022-11-24T03:33:17.073Z,8.02
2022-11-24T03:35:44.259Z,6.65
2022-11-24T03:38:11.382Z,7.13
2022-11-24T03:40:38.578Z,6.60
2022-11-24T03:43:05.720Z,6.28
2022-11-24T03:45:48.334Z,7.57
2022-11-24T03:48:16.420Z,6.00
2022-11-24T03:50:43.752Z,6.45
2022-11-24T03:53:11.296Z,5.82
2022-11-24T03:55:38.490Z,6.72
2022-11-24T03:58:05.643Z,6.20
2022-11-24T04:00:32.799Z,5.57
2022-11-24T04:03:00.043Z,6.03
2022-11-24T04:05:27.295Z,6.40
2022-11-24T04:07:57.704Z,6.00
2022-11-24T04:10:25.944Z,7.50
2022-11-24T04:12:55.939Z,6.65
2022-11-24T04:15:23.088Z,6.60
2022-11-24T04:17:50.727Z,5.53
2022-11-24T04:20:18.136Z,5.80
2022-11-24T04:22:45.323Z,5.60
2022-11-24T04:25:12.537Z,5.68
2022-11-24T04:27:39.976Z,6.07
2022-11-24T04:30:07.637Z,6.68
2022-11-24T04:32:34.799Z,6.32
2022-11-24T04:35:01.991Z,6.18
2022-11-24T04:37:29.241Z,6.07
2022-11-24T04:39:56.450Z,5.53
2022-11-24T04:42:23.666Z,5.40
2022-11-24T04:44:50.824Z,6.60
2022-11-24T04:47:19.188Z,5.65
2022-11-24T04:49:47.504Z,5.18
2022-11-24T04:52:14.688Z,5.38
2022-11-24T04:54:41.930Z,5.63
2022-11-24T04:57:12.370Z,5.00
2022-11-24T04:59:39.550Z,4.47
2022-11-24T05:02:06.775Z,5.30
2022-11-24T05:04:34.274Z,4.90
2022-11-24T05:07:01.646Z,5.15
2022-11-24T05:09:41.970Z,4.72
2022-11-24T05:12:15.316Z,5.35
2022-11-24T05:14:42.446Z,5.90
2022-11-24T05:17:09.585Z,4.28
2022-11-24T05:19:36.732Z,4.38
2022-11-24T05:22:03.970Z,4.57
2022-11-24T05:24:31.420Z,5.82
2022-11-24T05:26:58.772Z,5.55
2022-11-24T05:29:26.520Z,4.57
2022-11-24T05:31:53.671Z,5.00
2022-11-24T05:34:20.898Z,4.15
2022-11-24T05:36:54.338Z,5.05
2022-11-24T05:39:21.834Z,4.10
2022-11-24T05:41:48.999Z,5.53
2022-11-24T05:44:16.159Z,4.45
2022-11-24T05:46:43.390Z,4.88
2022-11-24T05:49:10.668Z,4.10
2022-11-24T05:51:37.797Z,4.55
2022-11-24T05:54:05.071Z,3.72
2022-11-24T05:56:32.419Z,4.03
2022-11-24T05:58:59.549Z,4.95
2022-11-24T06:01:26.769Z,5.50
2022-11-24T06:03:53.938Z,5.03
2022-11-24T06:06:21.126Z,4.45
2022-11-24T06:08:48.251Z,4.75
2022-11-24T06:11:18.142Z,4.65
2022-11-24T06:13:46.226Z,4.95
2022-11-24T06:16:13.634Z,3.83
2022-11-24T06:18:41.171Z,4.88
2022-11-24T06:21:11.119Z,4.88
2022-11-24T06:23:38.937Z,5.05
2022-11-24T06:26:06.217Z,5.15
2022-11-24T06:28:33.384Z,4.13
2022-11-24T06:31:01.494Z,3.97
2022-11-24T06:33:31.127Z,4.85
2022-11-24T06:36:06.047Z,4.65
2022-11-24T06:38:33.338Z,5.95
2022-11-24T06:41:01.323Z,4.05
2022-11-24T06:43:29.189Z,4.25
2022-11-24T06:45:56.912Z,4.38
2022-11-24T06:48:24.515Z,4.93
2022-11-24T06:50:51.675Z,4.47
2022-11-24T06:53:18.951Z,5.05
2022-11-24T06:55:46.759Z,5.88
2022-11-24T06:58:13.955Z,4.60
2022-11-24T07:00:41.296Z,3.88
2022-11-24T07:03:08.519Z,5.35
2022-11-24T07:05:35.713Z,5.07
2022-11-24T07:08:02.853Z,4.70
2022-11-24T07:10:30.062Z,5.47
2022-11-24T07:12:57.218Z,4.07
2022-11-24T07:15:24.348Z,5.35
2022-11-24T07:17:51.542Z,4.70
2022-11-24T07:20:18.680Z,4.47
2022-11-24T07:22:45.869Z,4.93
2022-11-24T07:25:14.530Z,4.00
2022-11-24T07:27:41.895Z,4.57
2022-11-24T07:30:09.280Z,4.13
2022-11-24T07:32:36.555Z,4.63
2022-11-24T07:35:03.804Z,5.50
2022-11-24T07:37:31.890Z,6.68
2022-11-24T07:39:59.337Z,4.75
2022-11-24T07:42:26.524Z,5.30
2022-11-24T07:44:53.737Z,4.43
2022-11-24T07:47:20.906Z,5.18
2022-11-24T07:49:48.105Z,4.50
2022-11-24T07:52:15.266Z,5.35
2022-11-24T07:54:42.412Z,4.85
2022-11-24T07:57:09.583Z,4.45
2022-11-24T07:59:36.729Z,6.05
2022-11-24T08:02:04.100Z,4.45
2022-11-24T08:04:31.434Z,4.45
2022-11-24T08:06:58.756Z,4.80
2022-11-24T08:09:25.919Z,5.55
2022-11-24T08:11:53.095Z,5.53
2022-11-24T08:14:20.980Z,5.70
2022-11-24T08:16:48.151Z,4.63
2022-11-24T08:19:15.320Z,3.60
2022-11-24T08:21:42.468Z,4.93
2022-11-24T08:24:09.842Z,5.30
2022-11-24T08:26:37.215Z,5.78
2022-11-24T08:29:04.398Z,5.35
2022-11-24T08:31:36.034Z,4.63
2022-11-24T08:34:04.123Z,5.22
2022-11-24T08:36:31.650Z,5.10
2022-11-24T08:38:59.723Z,7.10
2022-11-24T08:41:27.665Z,5.28
2022-11-24T08:43:55.396Z,5.00
2022-11-24T08:46:23.749Z,6.05
2022-11-24T08:48:52.250Z,5.85
2022-11-24T08:51:20.876Z,8.13
2022-11-24T08:53:48.043Z,5.90
2022-11-24T08:56:15.257Z,5.20
2022-11-24T08:58:42.925Z,7.43
2022-11-24T09:01:14.544Z,5.35
2022-11-24T09:03:48.498Z,5.10
2022-11-24T09:06:18.425Z,5.72
2022-11-24T09:08:45.555Z,5.93
2022-11-24T09:11:15.173Z,5.50
2022-11-24T09:13:42.720Z,6.28
2022-11-24T09:16:14.132Z,6.07
2022-11-24T09:18:44.861Z,5.28
2022-11-24T09:21:13.875Z,5.05
2022-11-24T09:23:41.656Z,5.00
2022-11-24T09:26:10.416Z,5.18
2022-11-24T09:28:37.997Z,6.32
2022-11-24T09:31:06.384Z,4.47
2022-11-24T09:33:34.012Z,5.05
2022-11-24T09:36:01.358Z,4.68
2022-11-24T09:38:28.863Z,4.05
2022-11-24T09:40:56.351Z,4.40
2022-11-24T09:43:38.828Z,4.43
2022-11-24T09:46:11.717Z,4.85
2022-11-24T09:48:41.638Z,4.45
2022-11-24T09:51:11.991Z,4.60
2022-11-24T09:53:42.060Z,4.80
2022-11-24T09:56:15.362Z,5.38
2022-11-24T09:58:48.576Z,4.75
2022-11-24T10:01:25.225Z,4.07
2022-11-24T10:03:53.361Z,4.28
2022-11-24T10:06:20.507Z,4.88
2022-11-24T10:09:10.610Z,4.00
2022-11-24T10:11:50.747Z,4.05
2022-11-24T10:14:34.236Z,3.30
2022-11-24T10:17:10.436Z,4.45
2022-11-24T10:19:53.356Z,4.03
2022-11-24T10:22:26.644Z,4.72
2022-11-24T10:25:06.562Z,4.93
2022-11-24T10:27:40.064Z,3.97
2022-11-24T10:30:15.039Z,3.78
2022-11-24T10:32:46.005Z,3.78
2022-11-24T10:35:23.247Z,3.92
2022-11-24T10:37:50.376Z,3.85
2022-11-24T10:40:57.325Z,3.70
2022-11-24T10:43:28.616Z,2.97
2022-11-24T10:45:56.796Z,3.78
2022-11-24T10:48:27.997Z,3.53
2022-11-24T10:50:58.206Z,3.55
2022-11-24T10:53:27.579Z,3.45
2022-11-24T10:55:57.504Z,3.88
2022-11-24T10:58:24.949Z,3.63
2022-11-24T11:00:52.090Z,3.42
2022-11-24T11:03:23.734Z,3.65
2022-11-24T11:05:53.959Z,3.83
2022-11-24T11:08:23.437Z,3.13
2022-11-24T11:10:51.713Z,3.53
2022-11-24T11:13:26.944Z,2.92
2022-11-24T11:15:54.683Z,3.00
2022-11-24T11:18:22.255Z,3.08
2022-11-24T11:20:51.218Z,2.55
2022-11-24T11:23:28.836Z,3.03
2022-11-24T11:26:14.828Z,2.80
2022-11-24T11:28:42.000Z,2.63
2022-11-24T11:31:21.839Z,2.65
2022-11-24T11:34:15.871Z,2.58
2022-11-24T11:36:49.999Z,2.30
2022-11-24T11:39:20.587Z,2.30
2022-11-24T11:41:48.832Z,2.10
2022-11-24T11:44:22.552Z,2.45
2022-11-24T11:46:49.805Z,3.03
2022-11-24T11:49:17.186Z,2.85
2022-11-24T11:52:00.306Z,3.15
2022-11-24T11:54:46.247Z,3.17
2022-11-24T11:57:26.699Z,3.08
2022-11-24T11:59:59.728Z,2.83
2022-11-24T12:02:51.576Z,3.75
2022-11-24T12:05:39.294Z,3.28
2022-11-24T12:08:10.314Z,2.83
2022-11-24T12:10:51.607Z,3.88
2022-11-24T12:13:37.337Z,3.65
2022-11-24T12:18:57.143Z,3.10
2022-11-24T12:21:44.199Z,3.17
2022-11-24T12:24:17.929Z,3.22
2022-11-24T12:26:48.832Z,3.70
2022-11-24T12:29:35.185Z,2.83
2022-11-24T12:32:21.364Z,3.17
2022-11-24T12:34:48.480Z,2.85
2022-11-24T12:37:26.675Z,3.72
2022-11-24T12:39:53.780Z,3.30
2022-11-24T12:42:23.702Z,3.30
2022-11-24T12:44:56.726Z,3.03
2022-11-24T12:47:42.817Z,3.88
2022-11-24T12:50:12.841Z,4.07
2022-11-24T12:52:57.180Z,3.35
2022-11-24T12:55:26.465Z,3.80
2022-11-24T12:58:00.187Z,3.92
2022-11-24T13:00:27.298Z,3.67
2022-11-24T13:03:13.318Z,3.20
2022-11-24T13:05:55.615Z,3.88
2022-11-24T13:08:23.164Z,4.45
2022-11-24T13:10:58.152Z,4.50
2022-11-24T13:13:28.470Z,4.40
2022-11-24T13:19:02.458Z,4.95
2022-11-24T13:21:50.122Z,5.07
2022-11-24T13:24:18.067Z,5.18
2022-11-24T13:26:48.531Z,5.40
2022-11-24T13:29:28.056Z,4.68
2022-11-24T13:31:56.370Z,5.70
2022-11-24T13:34:54.670Z,5.20
2022-11-24T13:37:33.895Z,5.22
2022-11-24T13:40:12.455Z,5.70
2022-11-24T13:42:57.877Z,6.05
2022-11-24T13:45:45.060Z,6.57
2022-11-24T13:48:22.567Z,6.07
2022-11-24T13:50:58.805Z,6.43
2022-11-24T13:53:42.483Z,7.82
2022-11-24T13:56:23.719Z,7.68
2022-11-24T13:58:58.716Z,6.40
2022-11-24T14:01:33.947Z,7.22
2022-11-24T14:07:02.511Z,6.55
2022-11-24T14:09:46.340Z,7.03
2022-11-24T14:12:13.564Z,7.43
2022-11-24T14:14:40.982Z,7.18
2022-11-24T14:17:08.106Z,7.32
2022-11-24T14:19:35.387Z,8.13
2022-11-24T14:22:02.612Z,7.82
2022-11-24T14:24:38.241Z,7.55
2022-11-24T14:27:14.381Z,7.93
2022-11-24T14:29:57.076Z,8.00
2022-11-24T14:32:24.527Z,7.85
2022-11-24T14:34:52.216Z,7.40
2022-11-24T14:37:20.164Z,8.30
2022-11-24T14:39:47.744Z,8.70
2022-11-24T14:42:25.058Z,8.13
2022-11-24T14:44:52.767Z,7.07
2022-11-24T14:47:19.947Z,7.05
2022-11-24T14:49:47.226Z,8.75
2022-11-24T14:52:15.999Z,8.18
2022-11-24T14:55:21.522Z,8.50
2022-11-24T14:57:48.889Z,8.45
2022-11-24T15:00:19.413Z,9.32
2022-11-24T15:02:48.346Z,8.50
2022-11-24T15:05:16.015Z,8.20
2022-11-24T15:07:44.901Z,9.10
2022-11-24T15:10:19.956Z,9.02
2022-11-24T15:12:55.277Z,9.18
2022-11-24T15:17:54.300Z,8.10
2022-11-24T15:20:25.674Z,8.75
2022-11-24T15:23:12.673Z,8.77
2022-11-24T15:25:39.868Z,8.30
2022-11-24T15:28:08.628Z,9.35
2022-11-24T15:30:36.706Z,9.02
2022-11-24T15:33:04.182Z,9.68
2022-11-24T15:35:32.627Z,8.48
2022-11-24T15:37:59.813Z,8.45
2022-11-24T15:40:26.981Z,8.63
2022-11-24T15:42:55.240Z,9.20
2022-11-24T15:45:23.882Z,10.38
2022-11-24T15:47:51.205Z,9.57
2022-11-24T15:50:18.600Z,9.48
2022-11-24T15:52:46.107Z,9.88
2022-11-24T15:55:22.905Z,10.57
2022-11-24T15:57:50.359Z,9.43
2022-11-24T16:00:18.482Z,9.10
2022-11-24T16:02:45.746Z,10.27
2022-11-24T16:05:13.562Z,10.25
2022-11-24T16:07:40.774Z,10.85
2022-11-24T16:10:09.024Z,10.80
2022-11-24T16:12:36.152Z,10.23
2022-11-24T16:15:03.386Z,10.25
2022-11-24T16:17:30.506Z,10.20
2022-11-24T16:20:00.801Z,10.13
2022-11-24T16:22:28.257Z,9.98
2022-11-24T16:24:55.422Z,9.98
2022-11-24T16:27:22.582Z,10.43
2022-11-24T16:29:49.704Z,12.23
2022-11-24T16:32:16.860Z,13.43
2022-11-24T16:34:43.983Z,12.60
2022-11-24T16:37:11.183Z,11.70
2022-11-24T16:39:38.322Z,17.02
2022-11-24T16:42:05.680Z,16.17
2022-11-24T16:44:34.497Z,14.65
2022-11-24T16:47:01.918Z,15.32
2022-11-24T16:49:29.073Z,13.50
2022-11-24T16:51:56.224Z,12.73
2022-11-24T16:54:23.480Z,12.52
2022-11-24T16:56:50.620Z,11.18
2022-11-24T16:59:18.050Z,11.60
2022-11-24T17:01:46.659Z,11.52
2022-11-24T17:04:13.969Z,12.55
2022-11-24T17:06:41.103Z,11.23
2022-11-24T17:09:09.110Z,11.25
2022-11-24T17:11:36.295Z,11.93
2022-11-24T17:14:03.443Z,11.02
2022-11-24T17:16:30.869Z,10.48
2022-11-24T17:18:58.886Z,11.48
2022-11-24T17:21:27.732Z,10.98
2022-11-24T17:23:55.844Z,10.10
2022-11-24T17:26:23.406Z,10.82
2022-11-24T17:28:50.520Z,10.02
2022-11-24T17:31:17.898Z,9.55
2022-11-24T17:33:45.083Z,9.50
2022-11-24T17:36:12.203Z,10.60
2022-11-24T17:38:39.374Z,9.35
2022-11-24T17:41:06.682Z,10.05
2022-11-24T17:43:34.006Z,9.02
2022-11-24T17:46:02.192Z,10.13
2022-11-24T17:48:29.601Z,11.52
2022-11-24T17:51:00.732Z,9.90
2022-11-24T17:53:28.267Z,10.43
2022-11-24T17:55:55.429Z,11.10
2022-11-24T17:58:22.589Z,11.10
2022-11-24T18:00:50.568Z,10.73
2022-11-24T18:03:17.770Z,10.68
2022-11-24T18:05:45.017Z,10.38
2022-11-24T18:08:12.213Z,11.88
2022-11-24T18:10:39.347Z,9.88
2022-11-24T18:13:06.657Z,12.00
2022-11-24T18:15:34.891Z,10.65
2022-11-24T18:18:02.494Z,11.02
2022-11-24T18:20:29.695Z,10.55
2022-11-24T18:23:05.450Z,10.05
2022-11-24T18:25:37.115Z,9.85
2022-11-24T18:28:04.312Z,10.45
2022-11-24T18:30:31.503Z,10.52
2022-11-24T18:32:59.067Z,8.93
2022-11-24T18:35:26.288Z,9.77
2022-11-24T18:37:54.130Z,9.40
2022-11-24T18:40:21.384Z,8.20
2022-11-24T18:42:48.519Z,8.73
2022-11-24T18:45:15.667Z,9.27
2022-11-24T18:47:42.850Z,8.73
2022-11-24T18:50:10.417Z,9.35
2022-11-24T18:52:37.583Z,9.57
2022-11-24T18:55:05.211Z,12.85
2022-11-24T18:57:32.512Z,14.85
2022-11-24T18:59:59.803Z,10.90
2022-11-24T19:02:27.091Z,9.40
2022-11-24T19:04:54.422Z,9.23
2022-11-24T19:07:21.620Z,9.27
2022-11-24T19:09:48.935Z,8.48
2022-11-24T19:12:16.126Z,10.65
2022-11-24T19:14:43.318Z,9.82
2022-11-24T19:17:10.538Z,11.95
2022-11-24T19:19:39.663Z,11.00
2022-11-24T19:22:06.937Z,11.20
2022-11-24T19:24:34.403Z,9.20
2022-11-24T19:27:01.832Z,8.23
2022-11-24T19:29:28.955Z,8.15
2022-11-24T19:31:56.254Z,8.77
2022-11-24T19:34:23.495Z,9.00
2022-11-24T19:36:50.634Z,8.52
2022-11-24T19:39:18.120Z,8.75
2022-11-24T19:41:45.354Z,7.35
2022-11-24T19:44:13.151Z,8.50
2022-11-24T19:46:40.754Z,9.02
2022-11-24T19:49:08.878Z,8.20
2022-11-24T19:51:39.948Z,9.18
2022-11-24T19:54:08.301Z,8.82
2022-11-24T19:56:36.701Z,11.13
2022-11-24T19:59:05.067Z,9.32
2022-11-24T20:01:40.107Z,8.57
2022-11-24T20:04:12.580Z,8.35
2022-11-24T20:06:41.028Z,7.60
2022-11-24T20:09:09.237Z,9.00
2022-11-24T20:11:36.782Z,8.20
2022-11-24T20:14:04.275Z,8.50
2022-11-24T20:16:32.764Z,8.05
2022-11-24T20:19:07.545Z,7.57
2022-11-24T20:21:35.668Z,7.30
2022-11-24T20:24:04.480Z,9.63
2022-11-24T20:26:33.288Z,7.82
2022-11-24T20:29:00.702Z,7.60
2022-11-24T20:31:36.629Z,8.10
2022-11-24T20:34:04.639Z,7.93
2022-11-24T20:36:32.472Z,8.35
2022-11-24T20:39:00.240Z,8.60
2022-11-24T20:41:28.800Z,9.60
2022-11-24T20:43:59.727Z,9.68
2022-11-24T20:46:28.211Z,10.93
2022-11-24T20:48:56.064Z,10.30
2022-11-24T20:51:30.373Z,9.48
2022-11-24T20:53:58.908Z,8.77
2022-11-24T20:56:30.451Z,9.43
2022-11-24T20:58:58.093Z,8.73
2022-11-24T21:01:26.958Z,9.38
2022-11-24T21:03:55.759Z,8.10
2022-11-24T21:06:23.503Z,8.00
2022-11-24T21:08:51.019Z,7.70
2022-11-24T21:11:19.105Z,8.85
2022-11-24T21:13:47.495Z,9.90
2022-11-24T21:16:15.811Z,8.40
2022-11-24T21:18:44.521Z,8.18
2022-11-24T21:21:11.908Z,6.97
2022-11-24T21:23:39.147Z,6.40
2022-11-24T21:26:11.536Z,7.22
2022-11-24T21:28:42.896Z,7.20
2022-11-24T21:31:12.379Z,7.57
2022-11-24T21:33:44.804Z,7.75
2022-11-24T21:36:12.560Z,7.63
2022-11-24T21:38:39.712Z,7.00
2022-11-24T21:41:08.291Z,8.93
2022-11-24T21:43:35.531Z,7.70
2022-11-24T21:46:03.631Z,7.72
2022-11-24T21:48:31.536Z,8.00
2022-11-24T21:50:59.436Z,7.32
2022-11-24T21:53:27.351Z,7.05
2022-11-24T21:55:58.357Z,6.70
2022-11-24T21:58:26.074Z,6.85
2022-11-24T22:00:53.322Z,7.47
2022-11-24T22:03:22.120Z,7.25
2022-11-24T22:05:59.252Z,7.30
2022-11-24T22:08:27.304Z,7.68
2022-11-24T22:10:54.667Z,7.65
2022-11-24T22:13:21.898Z,9.68
2022-11-24T22:15:49.016Z,7.60
2022-11-24T22:18:16.155Z,8.55
2022-11-24T22:20:43.419Z,8.18
2022-11-24T22:23:10.574Z,8.45
2022-11-24T22:25:37.698Z,8.15
2022-11-24T22:28:04.898Z,9.52
2022-11-24T22:30:32.026Z,7.50
2022-11-24T22:32:59.171Z,9.32
2022-11-24T22:35:26.364Z,7.93
2022-11-24T22:37:53.640Z,8.38
2022-11-24T22:40:20.806Z,7.32
2022-11-24T22:42:47.988Z,8.38
2022-11-24T22:45:15.188Z,8.38
2022-11-24T22:47:42.368Z,7.72
2022-11-24T22:50:09.658Z,8.05
2022-11-24T22:52:38.664Z,6.93
2022-11-24T22:55:05.924Z,7.70
2022-11-24T22:57:33.081Z,7.15
2022-11-24T23:00:00.199Z,7.45
2022-11-24T23:02:27.349Z,6.63
2022-11-24T23:04:54.484Z,7.95
2022-11-24T23:07:21.764Z,7.22
2022-11-24T23:09:48.915Z,7.20
2022-11-24T23:12:16.103Z,7.13
2022-11-24T23:14:43.248Z,6.68
2022-11-24T23:17:10.397Z,7.75
2022-11-24T23:19:37.568Z,6.68
2022-11-24T23:22:04.699Z,6.82
2022-11-24T23:24:31.968Z,7.50
2022-11-24T23:26:59.168Z,7.20
2022-11-24T23:29:26.313Z,6.72
2022-11-24T23:31:53.587Z,6.63
2022-11-24T23:34:20.819Z,6.72
2022-11-24T23:36:47.942Z,6.60
2022-11-24T23:39:15.273Z,7.03
2022-11-24T23:41:42.491Z,6.10
2022-11-24T23:44:09.663Z,7.20
2022-11-24T23:46:36.802Z,6.95
2022-11-24T23:49:04.210Z,7.43
2022-11-24T23:51:32.352Z,6.50
2022-11-24T23:54:00.282Z,7.18
2022-11-24T23:56:28.860Z,7.78
2022-11-24T23:58:56.133Z,6.85
